Sawyer, Oklahoma
Current Conditions -  °F | °C
As of 1:15 PM on Saturday 20 Dec 2014 (Local Time) from KHHW Reporting Station
Overcast Overcast  
Wind Chill: 48°   Ceiling: 1000
Heat Index: 48°   Visibility: 7mi
Dew Point: 42°   Wind: 0mph
Humidity: 80%   Direction: NA
Pressure: 30.2"   Gusts: NA
Location:  34.01°N, 95.37°W
Report Text: KHHW 201915Z AUTO 00000KT 7SM OVC010 09/06 A3020 RMK AO2 T00900058
Loading
Personal Weather Stations






























Interactive Weather Map New forecast layout! Learn more

10-Day Weather Forecast

Advertisements
Track Severe Weather on mobile